sensor_id;sensor_type;location;lat;lon;timestamp;noise_LAeq;noise_LA_min;noise_LA_max;noise_LA01;noise_LA95
73638;Laerm;53743;51.100;5.874;2023-09-08T00:00:59;38.65;36.94;41.85;;
73638;Laerm;53743;51.100;5.874;2023-09-08T00:02:01;38.58;36.68;39.98;;
73638;Laerm;53743;51.100;5.874;2023-09-08T00:03:02;38.55;37.09;40.09;;
73638;Laerm;53743;51.100;5.874;2023-09-08T00:04:05;38.60;37.07;39.99;;
73638;Laerm;53743;51.100;5.874;2023-09-08T00:05:07;38.55;36.85;40.02;;
73638;Laerm;53743;51.100;5.874;2023-09-08T00:06:09;38.55;37.14;40.03;;
73638;Laerm;53743;51.100;5.874;2023-09-08T00:07:11;38.57;36.96;39.99;;
73638;Laerm;53743;51.100;5.874;2023-09-08T00:08:13;38.63;36.99;40.03;;
73638;Laerm;53743;51.100;5.874;2023-09-08T00:09:14;38.65;36.91;40.24;;
73638;Laerm;53743;51.100;5.874;2023-09-08T00:10:15;38.82;37.10;40.05;;
73638;Laerm;53743;51.100;5.874;2023-09-08T00:11:17;39.03;37.28;41.11;;
73638;Laerm;53743;51.100;5.874;2023-09-08T00:12:19;39.15;37.42;43.74;;
73638;Laerm;53743;51.100;5.874;2023-09-08T00:13:23;47.98;37.75;63.01;;
73638;Laerm;53743;51.100;5.874;2023-09-08T00:14:24;39.13;37.50;41.55;;
73638;Laerm;53743;51.100;5.874;2023-09-08T00:15:26;39.16;37.46;40.65;;
73638;Laerm;53743;51.100;5.874;2023-09-08T00:16:27;39.18;37.43;41.22;;
73638;Laerm;53743;51.100;5.874;2023-09-08T00:17:30;39.21;37.39;40.71;;
73638;Laerm;53743;51.100;5.874;2023-09-08T00:18:31;39.21;37.69;40.69;;
73638;Laerm;53743;51.100;5.874;2023-09-08T00:19:33;39.24;37.70;41.03;;
73638;Laerm;53743;51.100;5.874;2023-09-08T00:20:34;39.36;37.86;40.77;;
73638;Laerm;53743;51.100;5.874;2023-09-08T00:21:37;39.45;37.87;41.01;;
73638;Laerm;53743;51.100;5.874;2023-09-08T00:22:38;39.53;37.89;41.04;;
73638;Laerm;53743;51.100;5.874;2023-09-08T00:23:40;39.59;37.89;40.94;;
73638;Laerm;53743;51.100;5.874;2023-09-08T00:24:42;39.68;38.07;41.16;;
73638;Laerm;53743;51.100;5.874;2023-09-08T00:25:44;48.05;38.37;63.61;;
73638;Laerm;53743;51.100;5.874;2023-09-08T00:26:45;39.74;38.16;41.40;;
73638;Laerm;53743;51.100;5.874;2023-09-08T00:27:47;46.20;37.93;61.15;;
73638;Laerm;53743;51.100;5.874;2023-09-08T00:28:50;39.69;38.02;41.48;;
73638;Laerm;53743;51.100;5.874;2023-09-08T00:29:52;39.74;38.25;41.35;;
73638;Laerm;53743;51.100;5.874;2023-09-08T00:30:53;39.80;38.27;41.43;;
73638;Laerm;53743;51.100;5.874;2023-09-08T00:31:55;39.78;38.08;41.25;;
73638;Laerm;53743;51.100;5.874;2023-09-08T00:32:57;39.81;38.19;41.18;;
73638;Laerm;53743;51.100;5.874;2023-09-08T00:33:59;39.74;38.45;41.13;;
73638;Laerm;53743;51.100;5.874;2023-09-08T00:35:00;39.78;38.18;41.23;;
73638;Laerm;53743;51.100;5.874;2023-09-08T00:36:01;39.74;38.20;41.30;;
73638;Laerm;53743;51.100;5.874;2023-09-08T00:37:03;39.78;38.23;41.30;;
73638;Laerm;53743;51.100;5.874;2023-09-08T00:38:08;40.03;38.41;42.54;;
73638;Laerm;53743;51.100;5.874;2023-09-08T00:39:10;41.75;38.44;47.07;;
73638;Laerm;53743;51.100;5.874;2023-09-08T00:40:11;39.83;38.38;41.36;;
73638;Laerm;53743;51.100;5.874;2023-09-08T00:41:13;39.88;38.22;41.16;;
73638;Laerm;53743;51.100;5.874;2023-09-08T00:42:14;51.10;38.61;69.40;;
73638;Laerm;53743;51.100;5.874;2023-09-08T00:43:17;40.61;38.09;49.47;;
73638;Laerm;53743;51.100;5.874;2023-09-08T00:44:19;52.17;38.70;69.26;;
73638;Laerm;53743;51.100;5.874;2023-09-08T00:45:23;40.16;38.38;41.52;;
73638;Laerm;53743;51.100;5.874;2023-09-08T00:46:24;40.22;38.61;43.01;;
73638;Laerm;53743;51.100;5.874;2023-09-08T00:47:28;40.30;38.82;41.99;;
73638;Laerm;53743;51.100;5.874;2023-09-08T00:48:30;40.36;38.86;41.83;;
73638;Laerm;53743;51.100;5.874;2023-09-08T00:49:32;40.46;38.83;41.94;;
73638;Laerm;53743;51.100;5.874;2023-09-08T00:50:35;40.56;39.12;42.24;;
73638;Laerm;53743;51.100;5.874;2023-09-08T00:51:38;40.58;38.96;42.40;;
73638;Laerm;53743;51.100;5.874;2023-09-08T00:52:39;40.64;39.24;41.91;;
73638;Laerm;53743;51.100;5.874;2023-09-08T00:53:41;40.59;38.59;42.28;;
73638;Laerm;53743;51.100;5.874;2023-09-08T00:54:43;40.60;39.13;42.02;;
73638;Laerm;53743;51.100;5.874;2023-09-08T00:55:45;40.64;39.27;42.01;;
73638;Laerm;53743;51.100;5.874;2023-09-08T00:56:49;49.54;39.33;62.90;;
73638;Laerm;53743;51.100;5.874;2023-09-08T00:57:55;40.60;39.22;41.90;;
73638;Laerm;53743;51.100;5.874;2023-09-08T00:58:58;40.66;39.06;42.07;;
73638;Laerm;53743;51.100;5.874;2023-09-08T01:00:02;40.75;39.44;41.95;;
73638;Laerm;53743;51.100;5.874;2023-09-08T01:01:06;40.84;39.37;42.31;;
73638;Laerm;53743;51.100;5.874;2023-09-08T01:02:07;40.88;39.45;42.74;;
73638;Laerm;53743;51.100;5.874;2023-09-08T01:03:10;40.80;39.35;42.11;;
73638;Laerm;53743;51.100;5.874;2023-09-08T01:04:13;40.80;39.45;42.10;;
73638;Laerm;53743;51.100;5.874;2023-09-08T01:05:14;40.75;39.51;42.25;;
73638;Laerm;53743;51.100;5.874;2023-09-08T01:06:17;40.73;39.32;42.13;;
73638;Laerm;53743;51.100;5.874;2023-09-08T01:07:20;40.73;39.07;42.05;;
73638;Laerm;53743;51.100;5.874;2023-09-08T01:08:23;40.71;39.02;42.41;;
73638;Laerm;53743;51.100;5.874;2023-09-08T01:09:27;45.73;39.49;60.43;;
73638;Laerm;53743;51.100;5.874;2023-09-08T01:10:29;40.74;39.19;42.12;;
73638;Laerm;53743;51.100;5.874;2023-09-08T01:11:31;40.82;39.38;42.23;;
73638;Laerm;53743;51.100;5.874;2023-09-08T01:12:34;40.80;39.09;42.05;;
73638;Laerm;53743;51.100;5.874;2023-09-08T01:13:35;40.83;39.53;42.31;;
73638;Laerm;53743;51.100;5.874;2023-09-08T01:14:37;40.92;39.56;42.47;;
73638;Laerm;53743;51.100;5.874;2023-09-08T01:15:40;40.99;39.49;42.13;;
73638;Laerm;53743;51.100;5.874;2023-09-08T01:16:42;41.02;39.65;42.56;;
73638;Laerm;53743;51.100;5.874;2023-09-08T01:17:44;41.08;39.53;42.30;;
73638;Laerm;53743;51.100;5.874;2023-09-08T01:18:47;41.10;39.59;42.36;;
73638;Laerm;53743;51.100;5.874;2023-09-08T01:19:55;41.11;39.87;42.50;;
73638;Laerm;53743;51.100;5.874;2023-09-08T01:21:37;41.14;39.74;42.51;;
73638;Laerm;53743;51.100;5.874;2023-09-08T01:23:08;41.14;39.54;42.36;;
73638;Laerm;53743;51.100;5.874;2023-09-08T01:24:37;41.16;39.42;42.78;;
73638;Laerm;53743;51.100;5.874;2023-09-08T01:25:51;41.26;39.86;42.73;;
73638;Laerm;53743;51.100;5.874;2023-09-08T01:26:56;41.25;39.94;42.51;;
73638;Laerm;53743;51.100;5.874;2023-09-08T01:28:02;47.67;39.69;64.57;;
73638;Laerm;53743;51.100;5.874;2023-09-08T01:29:10;41.23;39.80;42.65;;
73638;Laerm;53743;51.100;5.874;2023-09-08T01:30:14;41.25;39.72;43.31;;
73638;Laerm;53743;51.100;5.874;2023-09-08T01:31:17;41.31;39.95;42.65;;
73638;Laerm;53743;51.100;5.874;2023-09-08T01:32:20;41.29;39.90;42.60;;
73638;Laerm;53743;51.100;5.874;2023-09-08T01:33:23;41.23;39.67;42.58;;
73638;Laerm;53743;51.100;5.874;2023-09-08T01:34:25;41.22;39.91;42.47;;
73638;Laerm;53743;51.100;5.874;2023-09-08T01:35:27;41.24;39.72;42.48;;
73638;Laerm;53743;51.100;5.874;2023-09-08T01:36:29;41.28;39.93;42.60;;
73638;Laerm;53743;51.100;5.874;2023-09-08T01:37:31;46.49;40.21;61.37;;
73638;Laerm;53743;51.100;5.874;2023-09-08T01:38:32;41.33;39.82;42.54;;
73638;Laerm;53743;51.100;5.874;2023-09-08T01:39:36;41.33;39.80;42.62;;
73638;Laerm;53743;51.100;5.874;2023-09-08T01:40:37;41.31;39.94;42.62;;
73638;Laerm;53743;51.100;5.874;2023-09-08T01:41:40;41.34;39.66;42.88;;
73638;Laerm;53743;51.100;5.874;2023-09-08T01:42:42;41.33;40.00;42.86;;
73638;Laerm;53743;51.100;5.874;2023-09-08T01:43:43;41.42;39.91;42.66;;
73638;Laerm;53743;51.100;5.874;2023-09-08T01:44:45;41.42;40.15;43.53;;
73638;Laerm;53743;51.100;5.874;2023-09-08T01:45:46;41.43;40.15;42.52;;
73638;Laerm;53743;51.100;5.874;2023-09-08T01:46:49;41.38;39.99;42.60;;
73638;Laerm;53743;51.100;5.874;2023-09-08T01:47:52;41.38;39.77;42.94;;
73638;Laerm;53743;51.100;5.874;2023-09-08T01:48:54;41.37;39.90;42.87;;
73638;Laerm;53743;51.100;5.874;2023-09-08T01:49:55;41.36;40.16;42.52;;
73638;Laerm;53743;51.100;5.874;2023-09-08T01:50:56;41.35;39.65;42.51;;
73638;Laerm;53743;51.100;5.874;2023-09-08T01:51:58;41.34;40.08;42.77;;
73638;Laerm;53743;51.100;5.874;2023-09-08T01:52:59;41.29;39.86;42.55;;
73638;Laerm;53743;51.100;5.874;2023-09-08T01:54:03;45.39;39.76;59.33;;
73638;Laerm;53743;51.100;5.874;2023-09-08T01:55:05;41.28;40.02;42.95;;
73638;Laerm;53743;51.100;5.874;2023-09-08T01:56:08;43.77;39.78;55.76;;
73638;Laerm;53743;51.100;5.874;2023-09-08T01:57:10;41.26;40.10;42.70;;
73638;Laerm;53743;51.100;5.874;2023-09-08T01:58:12;48.72;39.86;64.65;;
73638;Laerm;53743;51.100;5.874;2023-09-08T01:59:14;41.18;39.72;42.43;;
73638;Laerm;53743;51.100;5.874;2023-09-08T02:00:16;41.21;39.92;42.82;;
73638;Laerm;53743;51.100;5.874;2023-09-08T02:01:17;41.21;39.75;42.41;;
73638;Laerm;53743;51.100;5.874;2023-09-08T02:02:19;41.11;39.66;42.47;;
73638;Laerm;53743;51.100;5.874;2023-09-08T02:03:20;41.07;39.27;42.41;;
73638;Laerm;53743;51.100;5.874;2023-09-08T02:04:22;41.05;39.67;42.50;;
73638;Laerm;53743;51.100;5.874;2023-09-08T02:05:24;46.12;39.39;61.21;;
73638;Laerm;53743;51.100;5.874;2023-09-08T02:06:26;40.94;39.40;42.19;;
73638;Laerm;53743;51.100;5.874;2023-09-08T02:07:27;40.91;39.42;42.25;;
73638;Laerm;53743;51.100;5.874;2023-09-08T02:08:29;40.95;39.47;42.41;;
73638;Laerm;53743;51.100;5.874;2023-09-08T02:09:31;40.95;39.60;42.61;;
73638;Laerm;53743;51.100;5.874;2023-09-08T02:10:33;45.50;39.74;59.26;;
73638;Laerm;53743;51.100;5.874;2023-09-08T02:11:34;40.89;39.37;42.25;;
73638;Laerm;53743;51.100;5.874;2023-09-08T02:12:37;40.84;39.41;43.26;;
73638;Laerm;53743;51.100;5.874;2023-09-08T02:13:40;40.80;38.80;42.42;;
73638;Laerm;53743;51.100;5.874;2023-09-08T02:14:43;40.77;39.14;42.47;;
73638;Laerm;53743;51.100;5.874;2023-09-08T02:15:45;40.76;39.39;41.99;;
73638;Laerm;53743;51.100;5.874;2023-09-08T02:16:47;40.75;39.21;42.14;;
73638;Laerm;53743;51.100;5.874;2023-09-08T02:17:50;40.76;39.10;42.00;;
73638;Laerm;53743;51.100;5.874;2023-09-08T02:18:52;40.71;39.01;42.37;;
73638;Laerm;53743;51.100;5.874;2023-09-08T02:19:53;40.65;39.17;42.00;;
73638;Laerm;53743;51.100;5.874;2023-09-08T02:20:55;40.64;38.89;42.47;;
73638;Laerm;53743;51.100;5.874;2023-09-08T02:21:56;40.67;39.01;41.94;;
73638;Laerm;53743;51.100;5.874;2023-09-08T02:23:04;47.94;39.19;63.38;;
73638;Laerm;53743;51.100;5.874;2023-09-08T02:24:07;40.69;38.86;41.96;;
73638;Laerm;53743;51.100;5.874;2023-09-08T02:25:10;40.71;39.11;42.11;;
73638;Laerm;53743;51.100;5.874;2023-09-08T02:26:12;40.69;39.23;42.02;;
73638;Laerm;53743;51.100;5.874;2023-09-08T02:27:14;40.70;39.20;42.14;;
73638;Laerm;53743;51.100;5.874;2023-09-08T02:28:17;40.68;38.77;41.94;;
73638;Laerm;53743;51.100;5.874;2023-09-08T02:29:19;40.68;39.25;42.32;;
73638;Laerm;53743;51.100;5.874;2023-09-08T02:30:20;45.59;39.42;59.11;;
73638;Laerm;53743;51.100;5.874;2023-09-08T02:31:22;44.09;39.21;57.82;;
73638;Laerm;53743;51.100;5.874;2023-09-08T02:32:24;40.63;39.15;41.93;;
73638;Laerm;53743;51.100;5.874;2023-09-08T02:33:26;40.62;38.85;41.89;;
73638;Laerm;53743;51.100;5.874;2023-09-08T02:34:27;40.73;39.18;41.95;;
73638;Laerm;53743;51.100;5.874;2023-09-08T02:35:29;40.72;39.04;42.10;;
73638;Laerm;53743;51.100;5.874;2023-09-08T02:36:33;40.63;39.13;41.90;;
73638;Laerm;53743;51.100;5.874;2023-09-08T02:37:35;40.64;39.31;42.06;;
73638;Laerm;53743;51.100;5.874;2023-09-08T02:38:37;40.65;39.24;42.05;;
73638;Laerm;53743;51.100;5.874;2023-09-08T02:39:39;40.66;39.45;42.40;;
73638;Laerm;53743;51.100;5.874;2023-09-08T02:40:41;40.70;39.20;42.42;;
73638;Laerm;53743;51.100;5.874;2023-09-08T02:41:46;40.69;39.13;42.11;;
73638;Laerm;53743;51.100;5.874;2023-09-08T02:42:47;40.70;39.02;42.30;;
73638;Laerm;53743;51.100;5.874;2023-09-08T02:43:51;49.11;39.29;64.66;;
73638;Laerm;53743;51.100;5.874;2023-09-08T02:44:52;40.68;39.28;42.19;;
73638;Laerm;53743;51.100;5.874;2023-09-08T02:45:55;40.71;39.10;41.92;;
73638;Laerm;53743;51.100;5.874;2023-09-08T02:46:56;41.13;39.28;47.56;;
73638;Laerm;53743;51.100;5.874;2023-09-08T02:47:59;45.66;39.43;59.99;;
73638;Laerm;53743;51.100;5.874;2023-09-08T02:49:00;40.73;39.14;42.23;;
73638;Laerm;53743;51.100;5.874;2023-09-08T02:50:04;45.95;39.39;60.78;;
73638;Laerm;53743;51.100;5.874;2023-09-08T02:51:09;40.78;39.42;42.15;;
73638;Laerm;53743;51.100;5.874;2023-09-08T02:52:12;40.77;39.05;42.24;;
73638;Laerm;53743;51.100;5.874;2023-09-08T02:53:14;40.80;39.20;42.25;;
73638;Laerm;53743;51.100;5.874;2023-09-08T02:54:16;48.71;39.63;63.22;;
73638;Laerm;53743;51.100;5.874;2023-09-08T02:55:17;41.49;39.35;45.00;;
73638;Laerm;53743;51.100;5.874;2023-09-08T02:56:19;40.79;38.99;42.13;;
73638;Laerm;53743;51.100;5.874;2023-09-08T02:57:22;40.75;39.25;42.17;;
73638;Laerm;53743;51.100;5.874;2023-09-08T02:58:25;40.74;39.26;42.18;;
73638;Laerm;53743;51.100;5.874;2023-09-08T02:59:28;40.70;39.17;42.08;;
73638;Laerm;53743;51.100;5.874;2023-09-08T03:00:30;49.30;39.58;65.09;;
73638;Laerm;53743;51.100;5.874;2023-09-08T03:01:32;46.84;39.38;61.50;;
73638;Laerm;53743;51.100;5.874;2023-09-08T03:02:34;48.66;39.46;64.43;;
73638;Laerm;53743;51.100;5.874;2023-09-08T03:03:35;40.68;39.25;42.37;;
73638;Laerm;53743;51.100;5.874;2023-09-08T03:04:38;40.76;39.29;42.20;;
73638;Laerm;53743;51.100;5.874;2023-09-08T03:05:39;40.75;39.18;42.09;;
73638;Laerm;53743;51.100;5.874;2023-09-08T03:06:42;40.70;38.82;42.14;;
73638;Laerm;53743;51.100;5.874;2023-09-08T03:07:47;40.69;39.15;42.00;;
73638;Laerm;53743;51.100;5.874;2023-09-08T03:08:49;40.67;39.12;42.21;;
73638;Laerm;53743;51.100;5.874;2023-09-08T03:09:50;49.00;39.36;65.09;;
73638;Laerm;53743;51.100;5.874;2023-09-08T03:10:55;40.65;39.24;41.90;;
73638;Laerm;53743;51.100;5.874;2023-09-08T03:11:59;40.65;39.10;42.25;;
73638;Laerm;53743;51.100;5.874;2023-09-08T03:13:00;49.79;39.35;67.37;;
73638;Laerm;53743;51.100;5.874;2023-09-08T03:14:02;40.72;39.30;42.16;;
73638;Laerm;53743;51.100;5.874;2023-09-08T03:15:08;40.72;39.05;42.27;;
73638;Laerm;53743;51.100;5.874;2023-09-08T03:16:10;40.75;38.96;42.12;;
73638;Laerm;53743;51.100;5.874;2023-09-08T03:17:11;40.82;39.41;42.27;;
73638;Laerm;53743;51.100;5.874;2023-09-08T03:18:14;49.14;39.23;64.96;;
73638;Laerm;53743;51.100;5.874;2023-09-08T03:19:15;40.84;39.20;42.40;;
73638;Laerm;53743;51.100;5.874;2023-09-08T03:20:17;40.88;39.43;42.16;;
73638;Laerm;53743;51.100;5.874;2023-09-08T03:21:18;46.06;39.64;61.31;;
73638;Laerm;53743;51.100;5.874;2023-09-08T03:22:20;44.01;39.78;57.03;;
73638;Laerm;53743;51.100;5.874;2023-09-08T03:23:21;40.93;39.29;42.21;;
73638;Laerm;53743;51.100;5.874;2023-09-08T03:24:24;41.07;39.56;42.80;;
73638;Laerm;53743;51.100;5.874;2023-09-08T03:25:25;47.42;39.79;62.77;;
73638;Laerm;53743;51.100;5.874;2023-09-08T03:26:26;41.05;39.63;42.81;;
73638;Laerm;53743;51.100;5.874;2023-09-08T03:27:28;41.08;39.74;42.49;;
73638;Laerm;53743;51.100;5.874;2023-09-08T03:28:31;41.17;39.33;42.50;;
73638;Laerm;53743;51.100;5.874;2023-09-08T03:29:34;44.38;39.87;55.95;;
73638;Laerm;53743;51.100;5.874;2023-09-08T03:30:37;46.01;39.67;61.76;;
73638;Laerm;53743;51.100;5.874;2023-09-08T03:31:39;41.06;39.60;42.36;;
73638;Laerm;53743;51.100;5.874;2023-09-08T03:32:40;41.05;39.66;42.38;;
73638;Laerm;53743;51.100;5.874;2023-09-08T03:33:42;47.64;39.69;60.63;;
73638;Laerm;53743;51.100;5.874;2023-09-08T03:34:44;49.10;39.86;62.43;;
73638;Laerm;53743;51.100;5.874;2023-09-08T03:35:46;41.40;39.34;45.83;;
73638;Laerm;53743;51.100;5.874;2023-09-08T03:36:48;41.25;39.50;44.22;;
73638;Laerm;53743;51.100;5.874;2023-09-08T03:37:51;45.33;39.79;58.93;;
73638;Laerm;53743;51.100;5.874;2023-09-08T03:38:52;41.12;39.86;42.47;;
73638;Laerm;53743;51.100;5.874;2023-09-08T03:39:54;41.16;39.83;42.72;;
73638;Laerm;53743;51.100;5.874;2023-09-08T03:40:55;42.97;40.12;52.62;;
73638;Laerm;53743;51.100;5.874;2023-09-08T03:41:56;46.20;40.04;57.44;;
73638;Laerm;53743;51.100;5.874;2023-09-08T03:42:58;41.27;39.69;42.48;;
73638;Laerm;53743;51.100;5.874;2023-09-08T03:44:00;41.37;39.92;42.64;;
73638;Laerm;53743;51.100;5.874;2023-09-08T03:45:02;41.32;40.04;42.54;;
73638;Laerm;53743;51.100;5.874;2023-09-08T03:46:05;44.93;40.09;56.53;;
73638;Laerm;53743;51.100;5.874;2023-09-08T03:47:07;45.35;39.97;58.73;;
73638;Laerm;53743;51.100;5.874;2023-09-08T03:48:09;48.84;40.14;62.02;;
73638;Laerm;53743;51.100;5.874;2023-09-08T03:49:11;45.65;40.15;60.67;;
73638;Laerm;53743;51.100;5.874;2023-09-08T03:50:12;47.91;40.03;62.42;;
73638;Laerm;53743;51.100;5.874;2023-09-08T03:51:15;44.51;40.34;56.57;;
73638;Laerm;53743;51.100;5.874;2023-09-08T03:52:17;47.30;40.28;62.83;;
73638;Laerm;53743;51.100;5.874;2023-09-08T03:53:19;41.67;40.29;44.33;;
73638;Laerm;53743;51.100;5.874;2023-09-08T03:54:20;46.69;40.34;58.04;;
73638;Laerm;53743;51.100;5.874;2023-09-08T03:55:22;47.47;40.37;63.40;;
73638;Laerm;53743;51.100;5.874;2023-09-08T03:56:23;41.89;40.61;49.94;;
73638;Laerm;53743;51.100;5.874;2023-09-08T03:57:25;41.84;40.37;43.69;;
73638;Laerm;53743;51.100;5.874;2023-09-08T03:58:26;45.62;40.57;59.80;;
73638;Laerm;53743;51.100;5.874;2023-09-08T03:59:29;45.90;40.40;58.85;;
73638;Laerm;53743;51.100;5.874;2023-09-08T04:00:30;48.22;40.58;60.44;;
73638;Laerm;53743;51.100;5.874;2023-09-08T04:01:33;45.14;40.39;58.22;;
73638;Laerm;53743;51.100;5.874;2023-09-08T04:02:34;41.70;40.25;42.85;;
73638;Laerm;53743;51.100;5.874;2023-09-08T04:03:37;41.71;40.55;43.02;;
73638;Laerm;53743;51.100;5.874;2023-09-08T04:04:39;41.66;40.47;42.96;;
73638;Laerm;53743;51.100;5.874;2023-09-08T04:05:42;45.96;40.46;61.64;;
73638;Laerm;53743;51.100;5.874;2023-09-08T04:06:43;47.72;40.48;60.91;;
73638;Laerm;53743;51.100;5.874;2023-09-08T04:07:45;45.32;40.25;57.92;;
73638;Laerm;53743;51.100;5.874;2023-09-08T04:08:47;43.33;40.41;55.87;;
73638;Laerm;53743;51.100;5.874;2023-09-08T04:09:48;41.58;40.15;42.83;;
73638;Laerm;53743;51.100;5.874;2023-09-08T04:10:49;41.63;40.31;42.82;;
73638;Laerm;53743;51.100;5.874;2023-09-08T04:11:51;44.22;40.54;56.55;;
73638;Laerm;53743;51.100;5.874;2023-09-08T04:12:53;46.56;40.68;57.33;;
73638;Laerm;53743;51.100;5.874;2023-09-08T04:13:55;45.14;40.22;58.50;;
73638;Laerm;53743;51.100;5.874;2023-09-08T04:14:56;41.64;40.18;42.74;;
73638;Laerm;53743;51.100;5.874;2023-09-08T04:15:58;44.67;40.33;56.98;;
73638;Laerm;53743;51.100;5.874;2023-09-08T04:17:00;43.58;40.31;54.77;;
73638;Laerm;53743;51.100;5.874;2023-09-08T04:18:03;45.44;40.45;57.98;;
73638;Laerm;53743;51.100;5.874;2023-09-08T04:19:04;46.12;40.73;56.68;;
73638;Laerm;53743;51.100;5.874;2023-09-08T04:20:08;49.84;40.86;59.44;;
73638;Laerm;53743;51.100;5.874;2023-09-08T04:21:09;45.81;40.28;57.95;;
73638;Laerm;53743;51.100;5.874;2023-09-08T04:22:11;46.33;40.73;57.71;;
73638;Laerm;53743;51.100;5.874;2023-09-08T04:23:12;41.80;40.41;43.09;;
73638;Laerm;53743;51.100;5.874;2023-09-08T04:24:15;45.53;40.48;57.06;;
73638;Laerm;53743;51.100;5.874;2023-09-08T04:25:16;44.12;40.62;56.61;;
73638;Laerm;53743;51.100;5.874;2023-09-08T04:26:18;44.17;40.66;56.25;;
73638;Laerm;53743;51.100;5.874;2023-09-08T04:27:19;43.52;40.58;54.81;;
73638;Laerm;53743;51.100;5.874;2023-09-08T04:28:20;48.00;41.24;58.08;;
73638;Laerm;53743;51.100;5.874;2023-09-08T04:29:23;41.97;40.56;44.38;;
73638;Laerm;53743;51.100;5.874;2023-09-08T04:30:24;45.89;40.29;57.52;;
73638;Laerm;53743;51.100;5.874;2023-09-08T04:31:26;46.80;40.87;57.56;;
73638;Laerm;53743;51.100;5.874;2023-09-08T04:32:29;50.12;40.98;63.58;;
73638;Laerm;53743;51.100;5.874;2023-09-08T04:33:31;45.53;40.99;58.72;;
73638;Laerm;53743;51.100;5.874;2023-09-08T04:34:33;46.23;40.97;59.69;;
73638;Laerm;53743;51.100;5.874;2023-09-08T04:35:35;46.98;40.67;56.70;;
73638;Laerm;53743;51.100;5.874;2023-09-08T04:36:36;43.04;40.87;52.99;;
73638;Laerm;53743;51.100;5.874;2023-09-08T04:37:38;44.99;40.88;55.16;;
73638;Laerm;53743;51.100;5.874;2023-09-08T04:38:40;44.72;40.68;54.53;;
73638;Laerm;53743;51.100;5.874;2023-09-08T04:39:44;47.15;40.90;61.61;;
73638;Laerm;53743;51.100;5.874;2023-09-08T04:40:46;47.16;41.20;58.09;;
73638;Laerm;53743;51.100;5.874;2023-09-08T04:41:49;46.33;40.49;57.07;;
73638;Laerm;53743;51.100;5.874;2023-09-08T04:42:50;47.48;40.83;60.49;;
73638;Laerm;53743;51.100;5.874;2023-09-08T04:43:52;45.00;40.92;58.25;;
73638;Laerm;53743;51.100;5.874;2023-09-08T04:44:54;49.90;40.47;61.15;;
73638;Laerm;53743;51.100;5.874;2023-09-08T04:45:55;45.66;41.01;57.00;;
73638;Laerm;53743;51.100;5.874;2023-09-08T04:46:57;46.56;40.85;57.39;;
73638;Laerm;53743;51.100;5.874;2023-09-08T04:48:00;48.15;40.59;58.56;;
73638;Laerm;53743;51.100;5.874;2023-09-08T04:49:04;47.80;40.74;56.69;;
73638;Laerm;53743;51.100;5.874;2023-09-08T04:50:06;48.32;40.80;58.93;;
73638;Laerm;53743;51.100;5.874;2023-09-08T04:51:08;47.79;40.87;58.98;;
73638;Laerm;53743;51.100;5.874;2023-09-08T04:52:11;49.28;41.04;59.99;;
73638;Laerm;53743;51.100;5.874;2023-09-08T04:53:13;49.65;40.86;62.15;;
73638;Laerm;53743;51.100;5.874;2023-09-08T04:54:14;49.35;40.65;64.72;;
73638;Laerm;53743;51.100;5.874;2023-09-08T04:55:17;46.69;40.76;62.05;;
73638;Laerm;53743;51.100;5.874;2023-09-08T04:56:20;48.63;40.76;58.97;;
73638;Laerm;53743;51.100;5.874;2023-09-08T04:57:22;46.11;40.50;57.60;;
73638;Laerm;53743;51.100;5.874;2023-09-08T04:58:24;46.71;40.30;57.10;;
73638;Laerm;53743;51.100;5.874;2023-09-08T04:59:26;49.86;40.76;61.24;;
73638;Laerm;53743;51.100;5.874;2023-09-08T05:00:28;50.40;40.62;60.68;;
73638;Laerm;53743;51.100;5.874;2023-09-08T05:01:31;48.74;40.97;59.05;;
73638;Laerm;53743;51.100;5.874;2023-09-08T05:02:34;50.10;40.75;62.27;;
73638;Laerm;53743;51.100;5.874;2023-09-08T05:03:38;45.65;40.61;56.73;;
73638;Laerm;53743;51.100;5.874;2023-09-08T05:04:41;48.03;40.72;60.43;;
73638;Laerm;53743;51.100;5.874;2023-09-08T05:05:45;49.33;41.78;58.97;;
73638;Laerm;53743;51.100;5.874;2023-09-08T05:06:46;48.14;40.99;58.10;;
73638;Laerm;53743;51.100;5.874;2023-09-08T05:07:50;47.67;40.89;58.76;;
73638;Laerm;53743;51.100;5.874;2023-09-08T05:08:54;44.16;40.72;55.74;;
73638;Laerm;53743;51.100;5.874;2023-09-08T05:09:58;46.70;40.58;56.77;;
73638;Laerm;53743;51.100;5.874;2023-09-08T05:11:02;47.23;40.90;62.21;;
73638;Laerm;53743;51.100;5.874;2023-09-08T05:12:06;47.77;40.98;56.48;;
73638;Laerm;53743;51.100;5.874;2023-09-08T05:13:09;49.36;40.79;60.04;;
73638;Laerm;53743;51.100;5.874;2023-09-08T05:14:11;45.17;40.64;56.64;;
73638;Laerm;53743;51.100;5.874;2023-09-08T05:15:13;48.65;41.17;56.90;;
73638;Laerm;53743;51.100;5.874;2023-09-08T05:16:19;50.61;40.89;62.43;;
73638;Laerm;53743;51.100;5.874;2023-09-08T05:17:26;48.52;40.83;59.33;;
73638;Laerm;53743;51.100;5.874;2023-09-08T05:18:29;43.47;40.59;53.75;;
73638;Laerm;53743;51.100;5.874;2023-09-08T05:19:31;47.70;40.65;61.06;;
73638;Laerm;53743;51.100;5.874;2023-09-08T05:20:33;48.96;40.98;57.12;;
73638;Laerm;53743;51.100;5.874;2023-09-08T05:21:34;50.79;40.90;59.42;;
73638;Laerm;53743;51.100;5.874;2023-09-08T05:22:38;46.61;40.57;57.81;;
73638;Laerm;53743;51.100;5.874;2023-09-08T05:23:41;46.41;40.58;57.40;;
73638;Laerm;53743;51.100;5.874;2023-09-08T05:24:45;48.09;40.69;59.14;;
73638;Laerm;53743;51.100;5.874;2023-09-08T05:25:46;50.43;41.44;60.03;;
73638;Laerm;53743;51.100;5.874;2023-09-08T05:26:48;49.85;40.78;60.65;;
73638;Laerm;53743;51.100;5.874;2023-09-08T05:27:50;47.85;40.92;56.43;;
73638;Laerm;53743;51.100;5.874;2023-09-08T05:28:54;49.57;41.35;58.19;;
73638;Laerm;53743;51.100;5.874;2023-09-08T05:30:01;48.52;40.59;61.51;;
73638;Laerm;53743;51.100;5.874;2023-09-08T05:31:03;49.51;41.21;57.89;;
73638;Laerm;53743;51.100;5.874;2023-09-08T05:32:05;52.20;42.38;63.83;;
73638;Laerm;53743;51.100;5.874;2023-09-08T05:33:08;49.93;40.70;59.61;;
73638;Laerm;53743;51.100;5.874;2023-09-08T05:34:09;50.87;41.07;61.30;;
73638;Laerm;53743;51.100;5.874;2023-09-08T05:35:13;50.98;42.19;60.39;;
73638;Laerm;53743;51.100;5.874;2023-09-08T05:36:15;50.02;40.84;59.41;;
73638;Laerm;53743;51.100;5.874;2023-09-08T05:37:18;50.98;41.14;60.35;;
73638;Laerm;53743;51.100;5.874;2023-09-08T05:38:19;50.83;40.62;60.38;;
73638;Laerm;53743;51.100;5.874;2023-09-08T05:39:22;51.31;40.83;60.98;;
73638;Laerm;53743;51.100;5.874;2023-09-08T05:40:23;51.53;40.61;61.23;;
73638;Laerm;53743;51.100;5.874;2023-09-08T05:41:27;51.14;40.48;61.46;;
73638;Laerm;53743;51.100;5.874;2023-09-08T05:42:28;49.08;40.44;60.63;;
73638;Laerm;53743;51.100;5.874;2023-09-08T05:43:30;51.35;40.57;61.82;;
73638;Laerm;53743;51.100;5.874;2023-09-08T05:44:32;48.78;40.41;61.01;;
73638;Laerm;53743;51.100;5.874;2023-09-08T05:45:34;53.08;40.52;63.89;;
73638;Laerm;53743;51.100;5.874;2023-09-08T05:46:36;53.59;44.05;61.32;;
73638;Laerm;53743;51.100;5.874;2023-09-08T05:47:38;51.48;40.48;62.26;;
73638;Laerm;53743;51.100;5.874;2023-09-08T05:48:39;54.11;40.78;63.30;;
73638;Laerm;53743;51.100;5.874;2023-09-08T05:49:41;49.87;40.55;59.52;;
73638;Laerm;53743;51.100;5.874;2023-09-08T05:50:45;51.32;40.86;60.41;;